createdAt,value
2023-04-18T00:00:34.101Z,78.19
2023-04-18T00:03:39.034Z,78.18
2023-04-18T00:06:42.273Z,78.75
2023-04-18T00:09:45.673Z,77.94
2023-04-18T00:12:50.196Z,79.42
2023-04-18T00:15:54.171Z,78.43
2023-04-18T00:18:57.543Z,78.40
2023-04-18T00:22:00.449Z,78.61
2023-04-18T00:25:03.796Z,78.39
2023-04-18T00:28:07.998Z,78.70
2023-04-18T00:31:11.036Z,78.36
2023-04-18T00:34:14.312Z,78.57
2023-04-18T00:37:17.598Z,77.83
2023-04-18T00:40:20.517Z,78.83
2023-04-18T00:43:25.593Z,78.33
2023-04-18T00:46:28.517Z,79.13
2023-04-18T00:49:31.678Z,79.13
2023-04-18T00:52:36.138Z,78.47
2023-04-18T00:55:40.630Z,77.77
2023-04-18T00:58:45.218Z,78.73
2023-04-18T01:01:48.567Z,79.38
2023-04-18T01:04:52.256Z,79.50
2023-04-18T01:07:58.908Z,79.49
2023-04-18T01:11:02.051Z,79.96
2023-04-18T01:14:07.850Z,78.46
2023-04-18T01:17:11.258Z,78.23
2023-04-18T01:20:16.766Z,79.10
2023-04-18T01:23:20.797Z,79.43
2023-04-18T01:26:25.281Z,79.69
2023-04-18T01:29:28.248Z,80.30
2023-04-18T01:32:31.265Z,79.21
2023-04-18T01:35:34.990Z,79.89
2023-04-18T01:38:38.226Z,79.56
2023-04-18T01:41:43.070Z,79.47
2023-04-18T01:44:47.408Z,79.97
2023-04-18T01:47:50.399Z,80.18
2023-04-18T01:50:53.533Z,80.11
2023-04-18T01:53:56.572Z,79.32
2023-04-18T01:57:00.899Z,79.66
2023-04-18T02:00:03.982Z,79.24
2023-04-18T02:03:07.084Z,79.65
2023-04-18T02:06:10.087Z,79.69
2023-04-18T02:09:13.093Z,79.34
2023-04-18T02:12:17.298Z,79.05
2023-04-18T02:15:20.598Z,79.85
2023-04-18T02:18:24.801Z,79.48
2023-04-18T02:21:30.379Z,79.24
2023-04-18T02:24:33.288Z,78.58
2023-04-18T02:27:37.782Z,78.34
2023-04-18T02:30:40.744Z,78.16
2023-04-18T02:33:44.175Z,78.06
2023-04-18T02:36:48.403Z,77.79
2023-04-18T02:39:52.201Z,78.51
2023-04-18T02:42:56.878Z,77.97
2023-04-18T02:45:59.927Z,77.55
2023-04-18T02:49:03.011Z,77.55
2023-04-18T02:52:06.739Z,78.32
2023-04-18T02:55:10.479Z,78.19
2023-04-18T02:58:14.744Z,78.74
2023-04-18T03:01:19.242Z,77.79
2023-04-18T03:04:22.379Z,78.73
2023-04-18T03:07:25.535Z,78.27
2023-04-18T03:10:28.672Z,78.90
2023-04-18T03:13:33.279Z,78.04
2023-04-18T03:16:36.250Z,77.04
2023-04-18T03:19:39.114Z,78.07
2023-04-18T03:22:42.075Z,76.11
2023-04-18T03:25:45.035Z,77.13
2023-04-18T03:28:49.425Z,77.63
2023-04-18T03:31:52.273Z,77.30
2023-04-18T03:34:55.423Z,79.13
2023-04-18T03:37:58.279Z,78.45
2023-04-18T03:41:01.156Z,77.38
2023-04-18T03:44:05.760Z,78.04
2023-04-18T03:47:08.808Z,78.05
2023-04-18T03:50:12.005Z,78.06
2023-04-18T03:53:15.485Z,76.62
2023-04-18T03:56:18.608Z,76.87
2023-04-18T03:59:23.126Z,77.83
2023-04-18T04:02:26.293Z,78.80
2023-04-18T04:05:29.683Z,77.80
2023-04-18T04:08:32.705Z,76.29
2023-04-18T04:11:35.654Z,77.40
2023-04-18T04:14:40.027Z,77.62
2023-04-18T04:17:42.946Z,76.83
2023-04-18T04:20:47.255Z,77.24
2023-04-18T04:23:50.613Z,76.46
2023-04-18T04:26:54.335Z,76.62
2023-04-18T04:29:58.680Z,76.71
2023-04-18T04:33:01.786Z,77.68
2023-04-18T04:36:05.335Z,78.21
2023-04-18T04:39:08.827Z,77.77
2023-04-18T04:42:12.203Z,77.16
2023-04-18T04:45:17.456Z,77.11
2023-04-18T04:48:22.203Z,76.92
2023-04-18T04:51:25.287Z,76.98
2023-04-18T04:54:28.283Z,77.41
2023-04-18T04:57:31.207Z,76.35
2023-04-18T05:00:35.691Z,77.08
2023-04-18T05:03:38.652Z,75.97
2023-04-18T05:06:41.730Z,74.37
2023-04-18T05:09:44.587Z,73.24
2023-04-18T05:12:47.547Z,73.02
2023-04-18T05:15:52.784Z,72.55
2023-04-18T05:18:55.644Z,72.64
2023-04-18T05:21:58.586Z,73.09
2023-04-18T05:25:01.546Z,72.20
2023-04-18T05:28:05.459Z,73.52
2023-04-18T05:31:09.651Z,73.50
2023-04-18T05:34:12.693Z,72.95
2023-04-18T05:37:15.801Z,74.07
2023-04-18T05:40:18.619Z,73.78
2023-04-18T05:43:21.588Z,71.43
2023-04-18T05:46:27.018Z,72.01
2023-04-18T05:49:32.209Z,73.63
2023-04-18T05:52:35.335Z,72.77
2023-04-18T05:55:40.463Z,72.19
2023-04-18T05:58:44.965Z,71.97
2023-04-18T06:01:49.499Z,71.74
2023-04-18T06:04:52.711Z,71.42
2023-04-18T06:07:55.869Z,70.88
2023-04-18T06:10:58.997Z,69.98
2023-04-18T06:14:01.826Z,71.73
2023-04-18T06:17:07.412Z,71.06
2023-04-18T06:20:11.368Z,70.22
2023-04-18T06:23:14.328Z,67.98
2023-04-18T06:26:17.264Z,68.57
2023-04-18T06:29:20.197Z,67.63
2023-04-18T06:32:24.412Z,68.60
2023-04-18T06:35:28.024Z,69.07
2023-04-18T06:38:31.052Z,68.74
2023-04-18T06:41:34.110Z,68.40
2023-04-18T06:44:37.065Z,68.23
2023-04-18T06:47:42.068Z,69.66
2023-04-18T06:50:45.158Z,68.81
2023-04-18T06:53:48.505Z,70.03
2023-04-18T06:56:51.543Z,69.21
2023-04-18T06:59:54.719Z,68.30
2023-04-18T07:02:59.027Z,68.10
2023-04-18T07:06:02.967Z,67.76
2023-04-18T07:09:05.778Z,69.33
2023-04-18T07:12:08.791Z,68.80
2023-04-18T07:15:12.365Z,68.45
2023-04-18T07:18:30.312Z,68.07
2023-04-18T07:21:40.575Z,67.25
2023-04-18T07:24:44.155Z,65.72
2023-04-18T07:27:47.833Z,66.69
2023-04-18T07:30:50.701Z,65.75
2023-04-18T07:33:55.333Z,64.53
2023-04-18T07:36:58.726Z,63.37
2023-04-18T07:40:01.735Z,61.56
2023-04-18T07:43:04.623Z,60.19
2023-04-18T07:46:07.613Z,58.02
2023-04-18T07:49:12.110Z,56.46
2023-04-18T07:52:15.075Z,54.82
2023-04-18T07:55:18.558Z,56.26
2023-04-18T07:58:21.614Z,55.91
2023-04-18T08:01:27.085Z,56.17
2023-04-18T08:04:31.623Z,54.23
2023-04-18T08:07:34.616Z,54.58
2023-04-18T08:10:38.228Z,56.03
2023-04-18T08:13:41.083Z,55.38
2023-04-18T08:16:44.032Z,57.85
2023-04-18T08:19:48.486Z,58.08
2023-04-18T08:26:00.483Z,59.07
2023-04-18T08:29:03.447Z,59.97
2023-04-18T08:32:08.452Z,60.33
2023-04-18T08:35:12.814Z,61.34
2023-04-18T08:38:17.134Z,60.21
2023-04-18T08:41:23.435Z,60.62
2023-04-18T08:44:27.019Z,60.81
2023-04-18T08:47:31.292Z,60.96
2023-04-18T08:50:36.180Z,60.79
2023-04-18T08:53:42.128Z,61.24
2023-04-18T08:56:45.330Z,61.43
2023-04-18T08:59:50.857Z,61.39
2023-04-18T09:02:57.086Z,61.22
2023-04-18T09:06:09.490Z,62.25
2023-04-18T09:09:12.626Z,62.05
2023-04-18T09:12:18.377Z,61.99
2023-04-18T09:15:23.906Z,62.50
2023-04-18T09:18:26.798Z,60.96
2023-04-18T09:21:32.797Z,61.17
2023-04-18T09:24:35.818Z,62.81
2023-04-18T09:27:38.669Z,60.96
2023-04-18T09:30:43.202Z,59.93
2023-04-18T09:33:54.396Z,60.19
2023-04-18T09:37:09.162Z,60.52
2023-04-18T09:40:19.097Z,59.56
2023-04-18T09:43:22.352Z,60.30
2023-04-18T09:46:25.522Z,60.03
2023-04-18T09:49:28.654Z,57.79
2023-04-18T09:52:35.876Z,57.85
2023-04-18T09:55:42.411Z,56.78
2023-04-18T09:58:48.139Z,56.20
2023-04-18T10:01:51.977Z,56.19
2023-04-18T10:04:56.987Z,55.86
2023-04-18T10:08:01.703Z,55.57
2023-04-18T10:11:04.875Z,55.83
2023-04-18T10:14:10.589Z,55.79
2023-04-18T10:17:15.711Z,54.72
2023-04-18T10:20:21.187Z,54.67
2023-04-18T10:23:37.692Z,55.11
2023-04-18T10:26:50.299Z,54.56
2023-04-18T10:29:54.638Z,54.69
2023-04-18T10:32:57.663Z,53.73
2023-04-18T10:36:03.164Z,53.88
2023-04-18T10:39:22.551Z,53.08
2023-04-18T10:42:59.393Z,52.06
2023-04-18T10:46:23.809Z,52.76
2023-04-18T10:49:32.055Z,53.57
2023-04-18T10:52:35.932Z,53.73
2023-04-18T10:55:43.165Z,55.04
2023-04-18T10:58:51.587Z,54.63
2023-04-18T11:01:57.770Z,54.46
2023-04-18T11:05:02.233Z,54.29
2023-04-18T11:08:05.412Z,53.89
2023-04-18T11:11:11.308Z,54.20
2023-04-18T11:14:14.561Z,53.53
2023-04-18T11:17:19.377Z,55.44
2023-04-18T11:20:22.282Z,54.46
2023-04-18T11:23:25.387Z,53.56
2023-04-18T11:26:30.678Z,54.32
2023-04-18T11:29:33.628Z,54.81
2023-04-18T11:32:36.572Z,53.81
2023-04-18T11:35:40.598Z,53.14
2023-04-18T11:38:43.527Z,53.84
2023-04-18T11:41:50.651Z,53.21
2023-04-18T11:44:53.410Z,54.73
2023-04-18T11:47:58.467Z,55.16
2023-04-18T11:51:01.479Z,53.48
2023-04-18T11:54:04.532Z,53.58
2023-04-18T11:57:20.881Z,54.46
2023-04-18T12:00:34.121Z,55.26
2023-04-18T12:03:37.309Z,53.86
2023-04-18T12:06:49.508Z,54.35
2023-04-18T12:09:53.494Z,54.48
2023-04-18T12:12:59.788Z,54.76
2023-04-18T12:16:03.543Z,54.77
2023-04-18T12:19:11.171Z,55.01
2023-04-18T12:22:16.689Z,54.06
2023-04-18T12:25:25.925Z,54.82
2023-04-18T12:28:32.372Z,55.88
2023-04-18T12:31:35.149Z,55.26
2023-04-18T12:34:37.976Z,54.69
2023-04-18T12:37:41.006Z,55.94
2023-04-18T12:40:43.737Z,54.50
2023-04-18T12:43:47.909Z,54.63
2023-04-18T12:46:50.700Z,55.77
2023-04-18T12:49:53.573Z,55.46
2023-04-18T12:52:58.290Z,54.03
2023-04-18T12:56:01.187Z,54.62
2023-04-18T12:59:05.829Z,54.16
2023-04-18T13:02:08.586Z,53.46
2023-04-18T13:05:13.396Z,54.05
2023-04-18T13:08:17.914Z,54.47
2023-04-18T13:11:22.620Z,54.69
2023-04-18T13:14:26.925Z,55.10
2023-04-18T13:17:29.838Z,54.54
2023-04-18T13:20:32.985Z,53.69
2023-04-18T13:23:35.801Z,53.50
2023-04-18T13:26:38.806Z,54.30
2023-04-18T13:29:45.716Z,53.67
2023-04-18T13:32:48.535Z,53.15
2023-04-18T13:35:51.427Z,52.99
2023-04-18T13:38:54.316Z,52.91
2023-04-18T13:41:57.234Z,52.98
2023-04-18T13:45:01.663Z,53.96
2023-04-18T13:48:04.790Z,54.35
2023-04-18T13:51:08.052Z,53.79
2023-04-18T13:54:14.647Z,53.69
2023-04-18T13:57:17.659Z,53.00
2023-04-18T14:00:22.522Z,53.33
2023-04-18T14:03:25.465Z,52.37
2023-04-18T14:06:28.722Z,52.04
2023-04-18T14:09:31.557Z,52.51
2023-04-18T14:12:34.707Z,52.79
2023-04-18T14:15:39.167Z,52.76
2023-04-18T14:18:42.047Z,52.81
2023-04-18T14:21:45.178Z,51.73
2023-04-18T14:24:47.971Z,52.31
2023-04-18T14:28:04.387Z,52.83
2023-04-18T14:31:08.669Z,53.08
2023-04-18T14:34:11.481Z,52.37
2023-04-18T14:37:15.714Z,52.31
2023-04-18T14:40:20.369Z,53.40
2023-04-18T14:43:23.219Z,53.51
2023-04-18T14:46:28.456Z,53.82
2023-04-18T14:49:31.448Z,52.95
2023-04-18T14:52:34.481Z,52.89
2023-04-18T14:55:37.788Z,51.94
2023-04-18T14:58:40.694Z,52.05
2023-04-18T15:01:45.165Z,51.81
2023-04-18T15:04:48.707Z,52.75
2023-04-18T15:07:52.061Z,51.54
2023-04-18T15:10:54.943Z,52.76
2023-04-18T15:13:58.438Z,53.43
2023-04-18T15:17:02.974Z,52.28
2023-04-18T15:20:07.631Z,50.46
2023-04-18T15:23:13.690Z,50.76
2023-04-18T15:26:17.022Z,51.10
2023-04-18T15:29:19.953Z,50.62
2023-04-18T15:32:24.865Z,50.94
2023-04-18T15:35:27.981Z,50.45
2023-04-18T15:38:32.875Z,51.72
2023-04-18T15:41:38.111Z,50.92
2023-04-18T15:44:40.912Z,50.97
2023-04-18T15:47:45.347Z,50.52
2023-04-18T15:50:52.044Z,50.31
2023-04-18T15:53:55.082Z,50.53
2023-04-18T15:56:58.139Z,50.35
2023-04-18T16:00:01.224Z,50.49
2023-04-18T16:03:05.937Z,50.94
2023-04-18T16:06:10.553Z,50.99
2023-04-18T16:09:14.578Z,50.27
2023-04-18T16:12:17.477Z,50.48
2023-04-18T16:15:20.368Z,49.06
2023-04-18T16:18:24.827Z,48.66
2023-04-18T16:21:28.171Z,49.42
2023-04-18T16:24:31.165Z,48.55
2023-04-18T16:27:34.002Z,47.70
2023-04-18T16:30:36.737Z,47.56
2023-04-18T16:33:41.225Z,46.03
2023-04-18T16:36:44.130Z,46.12
2023-04-18T16:39:47.076Z,46.33
2023-04-18T16:42:49.900Z,46.10
2023-04-18T16:45:52.700Z,46.39
2023-04-18T16:48:56.916Z,46.10
2023-04-18T16:51:59.690Z,46.29
2023-04-18T16:55:02.821Z,47.48
2023-04-18T16:58:05.877Z,47.39
2023-04-18T17:01:09.054Z,47.85
2023-04-18T17:04:13.467Z,47.10
2023-04-18T17:07:16.507Z,48.39
2023-04-18T17:10:19.766Z,48.65
2023-04-18T17:13:26.933Z,49.52
2023-04-18T17:16:29.815Z,50.03
2023-04-18T17:19:34.276Z,50.00
2023-04-18T17:22:37.217Z,50.64
2023-04-18T17:25:40.744Z,51.40
2023-04-18T17:28:43.546Z,51.01
2023-04-18T17:31:46.462Z,51.72
2023-04-18T17:34:50.887Z,52.76
2023-04-18T17:37:53.875Z,53.33
2023-04-18T17:41:01.101Z,52.81
2023-04-18T17:44:04.121Z,53.35
2023-04-18T17:47:06.982Z,53.82
2023-04-18T17:50:12.338Z,54.21
2023-04-18T17:53:15.236Z,53.44
2023-04-18T17:56:18.224Z,54.66
2023-04-18T17:59:21.118Z,54.82
2023-04-18T18:02:24.330Z,54.62
2023-04-18T18:05:28.812Z,55.59
2023-04-18T18:08:31.723Z,55.43
2023-04-18T18:11:34.778Z,54.75
2023-04-18T18:14:37.571Z,54.54
2023-04-18T18:17:40.524Z,55.40
2023-04-18T18:20:45.038Z,54.49
2023-04-18T18:23:48.441Z,54.19
2023-04-18T18:26:51.871Z,54.90
2023-04-18T18:29:54.867Z,54.08
2023-04-18T18:32:57.972Z,53.91
2023-04-18T18:36:02.604Z,53.64
2023-04-18T18:39:05.458Z,53.90
2023-04-18T18:42:08.528Z,54.33
2023-04-18T18:45:11.454Z,53.56
2023-04-18T18:48:15.431Z,53.23
2023-04-18T18:51:20.079Z,53.31
2023-04-18T18:54:23.005Z,52.77
2023-04-18T18:57:26.083Z,52.38
2023-04-18T19:00:29.099Z,53.22
2023-04-18T19:03:31.920Z,52.85
2023-04-18T19:06:36.269Z,52.36
2023-04-18T19:09:38.993Z,53.07
2023-04-18T19:12:41.843Z,52.18
2023-04-18T19:15:44.690Z,52.14
2023-04-18T19:18:49.114Z,52.51
2023-04-18T19:21:53.339Z,53.36
2023-04-18T19:24:56.067Z,52.72
2023-04-18T19:27:58.934Z,52.59
2023-04-18T19:31:01.833Z,52.51
2023-04-18T19:34:04.696Z,53.43
2023-04-18T19:37:08.980Z,53.00
2023-04-18T19:40:12.427Z,53.54
2023-04-18T19:43:15.188Z,53.78
2023-04-18T19:46:17.925Z,53.81
2023-04-18T19:49:22.427Z,53.96
2023-04-18T19:52:26.605Z,55.30
2023-04-18T19:55:29.348Z,54.95
2023-04-18T19:58:35.785Z,54.77
2023-04-18T20:01:38.753Z,55.31
2023-04-18T20:04:42.356Z,56.10
2023-04-18T20:07:46.605Z,56.22
2023-04-18T20:10:49.609Z,56.70
2023-04-18T20:13:54.973Z,56.44
2023-04-18T20:16:58.177Z,56.79
2023-04-18T20:20:01.532Z,57.99
2023-04-18T20:23:06.028Z,58.00
2023-04-18T20:26:09.239Z,58.44
2023-04-18T20:29:12.196Z,58.28
2023-04-18T20:32:16.180Z,58.58
2023-04-18T20:35:22.328Z,58.45
2023-04-18T20:38:29.883Z,58.78
2023-04-18T20:41:34.876Z,59.94
2023-04-18T20:44:38.062Z,60.13
2023-04-18T20:47:41.477Z,60.11
2023-04-18T20:50:50.656Z,60.38
2023-04-18T20:53:54.896Z,60.73
2023-04-18T20:56:57.616Z,60.63
2023-04-18T21:00:00.539Z,60.11
2023-04-18T21:03:03.335Z,60.70
2023-04-18T21:06:06.396Z,60.82
2023-04-18T21:09:10.508Z,60.72
2023-04-18T21:12:13.403Z,62.03
2023-04-18T21:15:16.302Z,62.11
2023-04-18T21:18:19.312Z,62.89
2023-04-18T21:21:21.993Z,63.33
2023-04-18T21:24:26.212Z,62.91
2023-04-18T21:27:28.948Z,63.33
2023-04-18T21:30:31.805Z,63.58
2023-04-18T21:33:34.634Z,63.77
2023-04-18T21:36:39.936Z,63.92
2023-04-18T21:39:44.205Z,63.28
2023-04-18T21:42:48.663Z,62.93
2023-04-18T21:45:52.733Z,64.12
2023-04-18T21:48:55.726Z,63.55
2023-04-18T21:51:58.441Z,63.75
2023-04-18T21:55:02.689Z,61.88
2023-04-18T21:58:05.437Z,62.72
2023-04-18T22:01:08.284Z,62.66
2023-04-18T22:04:12.503Z,62.82
2023-04-18T22:07:18.481Z,61.60
2023-04-18T22:10:22.941Z,62.88
2023-04-18T22:13:30.074Z,61.40
2023-04-18T22:16:33.419Z,62.12
2023-04-18T22:19:36.409Z,61.25
2023-04-18T22:22:39.142Z,61.79
2023-04-18T22:25:43.376Z,61.61
2023-04-18T22:28:46.136Z,61.10
2023-04-18T22:31:49.024Z,60.51
2023-04-18T22:34:51.878Z,60.51
2023-04-18T22:37:54.600Z,60.68
2023-04-18T22:41:00.463Z,60.52
2023-04-18T22:44:03.191Z,61.24
2023-04-18T22:47:06.357Z,61.33
2023-04-18T22:50:10.114Z,60.95
2023-04-18T22:53:14.353Z,60.59
2023-04-18T22:56:18.654Z,60.13
2023-04-18T22:59:21.790Z,60.43
2023-04-18T23:02:25.256Z,59.97
2023-04-18T23:05:28.395Z,59.61
2023-04-18T23:08:31.600Z,58.76
2023-04-18T23:11:36.155Z,58.98
2023-04-18T23:14:40.577Z,59.67
2023-04-18T23:17:43.630Z,59.90
2023-04-18T23:20:47.138Z,59.44
2023-04-18T23:23:50.114Z,59.55
2023-04-18T23:26:54.466Z,58.07
2023-04-18T23:29:57.364Z,59.11
2023-04-18T23:33:00.544Z,58.34
2023-04-18T23:36:03.508Z,58.99
2023-04-18T23:39:06.557Z,57.71
2023-04-18T23:42:11.071Z,57.41
2023-04-18T23:45:16.541Z,55.98
2023-04-18T23:48:19.621Z,55.99
2023-04-18T23:51:22.570Z,55.44
2023-04-18T23:54:25.488Z,55.80
2023-04-18T23:57:29.935Z,54.52
